Time;durP1;ratioP1;P1;durP2;ratioP2;P2;SDS_P1;SDS_P2;PMS_P1;PMS_P2;Temp;Humidity;BMP_temperature;BMP_pressure;BME280_temperature;BME280_humidity;BME280_pressure;Samples;Min_cycle;Max_cycle;Signal;HPM_P1;HPM_P2
2022/11/24 00:01:33;;;;;;;15.23;4.93;;;7.70;99.90;;;;;;5071167;28;20503;-67
2022/11/24 00:04:05;;;;;;;14.52;6.00;;;7.70;99.90;;;;;;5052398;28;20532;-67
2022/11/24 00:06:32;;;;;;;12.95;4.90;;;7.70;99.90;;;;;;5071662;28;20045;-67
2022/11/24 00:08:58;;;;;;;15.10;5.28;;;7.70;99.90;;;;;;5071470;28;20036;-67
2022/11/24 00:11:27;;;;;;;10.73;4.90;;;7.70;99.90;;;;;;5070114;28;20507;-67
2022/11/24 00:13:53;;;;;;;12.07;4.75;;;7.60;99.90;;;;;;5070333;28;20045;-67
2022/11/24 00:16:24;;;;;;;12.13;4.50;;;7.60;99.90;;;;;;5071532;28;20048;-67
2022/11/24 00:18:53;;;;;;;12.68;4.97;;;7.60;99.90;;;;;;5055920;28;20586;-67
2022/11/24 00:21:20;;;;;;;9.52;4.78;;;7.50;99.90;;;;;;5051006;28;20047;-68
2022/11/24 00:23:47;;;;;;;14.65;4.72;;;7.50;99.90;;;;;;5050177;28;20110;-67
2022/11/24 00:26:15;;;;;;;8.10;5.45;;;7.50;99.90;;;;;;5051253;28;20037;-67
2022/11/24 00:28:42;;;;;;;17.63;4.22;;;7.60;99.90;;;;;;5051183;28;20041;-67
2022/11/24 00:31:19;;;;;;;10.80;4.15;;;7.50;99.90;;;;;;5050964;28;20037;-67
2022/11/24 00:33:46;;;;;;;10.93;4.82;;;7.50;99.90;;;;;;5050343;28;20091;-67
2022/11/24 00:36:13;;;;;;;13.00;4.60;;;7.50;99.90;;;;;;5051147;28;20040;-67
2022/11/24 00:38:39;;;;;;;15.82;4.80;;;7.50;99.90;;;;;;5050804;28;20053;-67
2022/11/24 00:41:05;;;;;;;9.90;4.47;;;7.40;99.90;;;;;;5050781;28;20048;-67
2022/11/24 00:43:31;;;;;;;13.13;4.18;;;7.40;99.90;;;;;;5050218;28;20051;-67
2022/11/24 00:45:57;;;;;;;13.85;4.10;;;7.40;99.90;;;;;;5050387;28;20108;-67
2022/11/24 00:48:22;;;;;;;19.63;4.22;;;7.40;99.90;;;;;;5049727;28;20051;-67
2022/11/24 00:50:57;;;;;;;12.10;4.00;;;7.40;99.90;;;;;;5050736;28;20053;-67
2022/11/24 00:53:22;;;;;;;14.93;4.55;;;7.40;99.90;;;;;;5050601;28;20039;-67
2022/11/24 00:55:50;;;;;;;11.40;4.18;;;7.30;99.90;;;;;;5049761;28;20044;-67
2022/11/24 00:58:15;;;;;;;23.08;4.85;;;7.40;99.90;;;;;;5050578;28;20047;-67
2022/11/24 01:00:41;;;;;;;10.30;3.90;;;7.50;99.90;;;;;;5050359;28;20116;-66
2022/11/24 01:03:06;;;;;;;17.48;4.55;;;7.40;99.90;;;;;;5050789;28;20044;-67
2022/11/24 01:05:35;;;;;;;10.23;3.85;;;7.40;99.90;;;;;;5049733;28;20037;-67
2022/11/24 01:08:01;;;;;;;11.65;3.83;;;7.30;99.90;;;;;;5050727;28;20044;-67
2022/11/24 01:10:27;;;;;;;6.88;3.55;;;7.30;99.90;;;;;;5050293;28;20033;-67
2022/11/24 01:12:52;;;;;;;9.32;3.78;;;7.30;99.90;;;;;;5052794;28;20037;-67
2022/11/24 01:15:18;;;;;;;18.33;4.22;;;7.30;99.90;;;;;;5053675;28;20105;-67
2022/11/24 01:17:44;;;;;;;13.13;4.00;;;7.30;99.90;;;;;;5054875;28;20041;-67
2022/11/24 01:20:10;;;;;;;20.63;4.40;;;7.30;99.90;;;;;;5054426;28;20040;-68
2022/11/24 01:22:37;;;;;;;15.60;4.20;;;7.20;99.90;;;;;;5054558;28;20036;-67
2022/11/24 01:25:05;;;;;;;14.45;4.50;;;7.30;99.90;;;;;;5053449;28;20041;-67
2022/11/24 01:27:31;;;;;;;16.98;3.97;;;7.30;99.90;;;;;;5054599;28;20362;-67
2022/11/24 01:29:56;;;;;;;11.85;4.68;;;7.20;99.90;;;;;;5054549;28;20045;-67
2022/11/24 01:32:22;;;;;;;12.10;4.30;;;7.30;99.90;;;;;;5054272;28;20071;-68
2022/11/24 01:34:48;;;;;;;17.02;3.70;;;7.30;99.90;;;;;;5053823;28;20478;-67
2022/11/24 01:37:14;;;;;;;13.05;3.25;;;7.30;99.90;;;;;;5054434;28;20056;-67
2022/11/24 01:39:40;;;;;;;15.23;3.60;;;7.30;99.90;;;;;;5054484;28;20040;-67
2022/11/24 01:42:06;;;;;;;16.67;3.65;;;7.20;99.90;;;;;;5054084;28;20049;-67
2022/11/24 01:44:32;;;;;;;13.25;3.80;;;7.30;99.90;;;;;;5053566;28;20099;-67
2022/11/24 01:47:01;;;;;;;13.48;3.80;;;7.30;99.90;;;;;;5054167;28;20037;-67
2022/11/24 01:49:34;;;;;;;18.10;3.83;;;7.20;99.90;;;;;;5054236;28;20663;-67
2022/11/24 01:52:25;;;;;;;13.93;3.28;;;7.20;99.90;;;;;;5052636;28;20087;-67
2022/11/24 01:54:56;;;;;;;15.18;3.58;;;7.20;99.90;;;;;;5053364;28;20049;-67
2022/11/24 01:57:31;;;;;;;15.63;3.65;;;7.20;99.90;;;;;;5054045;28;20041;-67
2022/11/24 02:00:12;;;;;;;18.85;3.75;;;7.20;99.90;;;;;;5052718;28;20404;-67
2022/11/24 02:02:38;;;;;;;11.75;3.70;;;7.20;99.90;;;;;;5053665;28;20079;-67
2022/11/24 02:05:42;;;;;;;15.82;4.55;;;7.20;99.90;;;;;;5052989;28;20080;-67
2022/11/24 02:08:20;;;;;;;13.88;3.33;;;7.20;99.90;;;;;;5053968;28;20037;-67
2022/11/24 02:10:47;;;;;;;13.38;3.85;;;7.20;99.90;;;;;;5052532;28;20497;-67
2022/11/24 02:13:13;;;;;;;15.27;3.83;;;7.20;99.90;;;;;;5053303;28;20485;-67
2022/11/24 02:15:39;;;;;;;15.68;3.33;;;7.20;99.90;;;;;;5035059;28;20052;-67
2022/11/24 02:18:05;;;;;;;11.15;3.53;;;7.20;99.90;;;;;;5053732;28;20383;-67
2022/11/24 02:20:30;;;;;;;15.30;3.45;;;7.20;99.90;;;;;;5053555;28;20041;-67
2022/11/24 02:23:03;;;;;;;11.80;3.17;;;7.10;99.90;;;;;;5052751;28;20041;-67
2022/11/24 02:26:06;;;;;;;13.23;3.67;;;7.20;99.90;;;;;;5052823;28;20063;-67
2022/11/24 02:28:32;;;;;;;6.47;3.60;;;7.20;99.90;;;;;;5053469;28;20037;-67
2022/11/24 02:30:59;;;;;;;12.40;3.30;;;7.20;99.90;;;;;;5053306;28;20517;-67
2022/11/24 02:33:25;;;;;;;12.98;3.35;;;7.20;99.90;;;;;;5053006;28;20588;-67
2022/11/24 02:35:52;;;;;;;33.83;5.50;;;7.20;99.90;;;;;;5052678;28;20041;-67
2022/11/24 02:38:18;;;;;;;8.38;3.22;;;7.20;99.90;;;;;;5052936;28;20029;-67
2022/11/24 02:40:48;;;;;;;12.57;4.13;;;7.20;99.90;;;;;;5053316;28;20135;-67
2022/11/24 02:43:18;;;;;;;12.82;3.55;;;7.20;99.90;;;;;;5051645;28;20044;-67
2022/11/24 02:45:44;;;;;;;12.25;3.10;;;7.20;99.90;;;;;;5052359;28;20079;-68
2022/11/24 02:48:09;;;;;;;14.27;2.78;;;7.20;99.90;;;;;;5053211;28;20068;-67
2022/11/24 02:50:35;;;;;;;15.80;2.60;;;7.20;99.90;;;;;;5053006;28;20040;-67
2022/11/24 02:53:01;;;;;;;19.67;3.90;;;7.20;99.90;;;;;;5053130;28;20044;-67
2022/11/24 02:55:26;;;;;;;12.75;3.13;;;7.20;99.90;;;;;;5051806;28;20079;-67
2022/11/24 02:57:52;;;;;;;14.55;3.42;;;7.20;99.90;;;;;;5052845;28;20098;-67
2022/11/24 03:00:18;;;;;;;21.45;4.05;;;7.20;99.90;;;;;;5052503;28;20040;-67
2022/11/24 03:02:44;;;;;;;16.02;2.90;;;7.20;99.90;;;;;;5052644;28;20048;-67
2022/11/24 03:05:11;;;;;;;12.45;3.10;;;7.20;99.90;;;;;;5051501;28;20107;-67
2022/11/24 03:07:37;;;;;;;11.73;2.95;;;7.30;99.90;;;;;;5050973;28;20410;-67
2022/11/24 03:10:03;;;;;;;11.95;3.00;;;7.40;99.90;;;;;;5052497;28;20086;-67
2022/11/24 03:12:29;;;;;;;15.25;3.17;;;7.40;99.90;;;;;;5052483;28;20094;-67
2022/11/24 03:14:54;;;;;;;30.23;3.67;;;7.40;99.90;;;;;;5051694;28;20045;-68
2022/11/24 03:17:20;;;;;;;10.90;3.35;;;7.40;99.90;;;;;;5052637;28;20485;-68
2022/11/24 03:19:46;;;;;;;10.50;2.58;;;7.50;99.90;;;;;;5052516;28;20033;-67
2022/11/24 03:22:12;;;;;;;12.55;2.58;;;7.40;99.90;;;;;;5052406;28;20112;-67
2022/11/24 03:24:38;;;;;;;11.65;3.25;;;7.50;99.90;;;;;;5051481;28;20041;-67
2022/11/24 03:27:04;;;;;;;6.30;2.47;;;7.50;99.90;;;;;;5052013;28;20040;-67
2022/11/24 03:29:29;;;;;;;14.75;2.53;;;7.50;99.90;;;;;;5052063;28;20041;-67
2022/11/24 03:31:55;;;;;;;13.13;2.20;;;7.60;99.90;;;;;;5052174;28;20123;-67
2022/11/24 03:34:21;;;;;;;12.88;3.13;;;7.60;99.90;;;;;;5050372;28;20037;-68
2022/11/24 03:36:46;;;;;;;13.60;2.53;;;7.60;99.90;;;;;;5051972;28;20155;-67
2022/11/24 03:39:12;;;;;;;16.58;4.30;;;7.60;99.90;;;;;;5052060;28;20546;-67
2022/11/24 03:41:38;;;;;;;10.90;2.85;;;7.60;99.90;;;;;;5050599;28;20045;-67
2022/11/24 03:44:04;;;;;;;14.02;3.03;;;7.70;99.90;;;;;;5051112;28;20076;-68
2022/11/24 03:46:29;;;;;;;9.57;3.15;;;7.60;99.90;;;;;;5050943;28;20033;-67
2022/11/24 03:48:55;;;;;;;15.93;2.97;;;7.60;99.90;;;;;;5050311;28;20052;-67
2022/11/24 03:51:20;;;;;;;14.65;3.08;;;7.60;99.90;;;;;;5051825;28;20047;-67
2022/11/24 03:53:46;;;;;;;21.13;3.20;;;7.60;99.90;;;;;;5050852;28;20084;-67
2022/11/24 03:56:12;;;;;;;12.95;3.08;;;7.60;99.90;;;;;;5051877;28;20044;-67
2022/11/24 03:58:38;;;;;;;12.35;2.83;;;7.60;99.90;;;;;;5051598;28;20124;-67
2022/11/24 04:01:04;;;;;;;11.90;2.83;;;7.50;99.90;;;;;;5051856;28;20124;-67
2022/11/24 04:03:29;;;;;;;15.73;3.05;;;7.50;99.90;;;;;;5051395;28;20072;-67
2022/11/24 04:05:55;;;;;;;11.60;2.28;;;7.50;99.90;;;;;;5050956;28;20408;-68
2022/11/24 04:08:21;;;;;;;11.60;2.28;;;7.50;99.90;;;;;;5051271;28;20556;-67
2022/11/24 04:10:53;;;;;;;12.18;3.20;;;7.50;99.90;;;;;;5051574;28;20481;-67
2022/11/24 04:13:21;;;;;;;14.18;3.22;;;7.50;99.90;;;;;;5051313;28;20029;-67
2022/11/24 04:15:47;;;;;;;12.00;2.85;;;7.50;99.90;;;;;;5049320;28;20071;-66
2022/11/24 04:18:13;;;;;;;6.93;2.83;;;7.50;99.90;;;;;;5033162;28;20044;-67
2022/11/24 04:20:40;;;;;;;11.38;2.40;;;7.50;99.90;;;;;;5051477;28;20094;-67
2022/11/24 04:23:06;;;;;;;12.90;2.80;;;7.50;99.90;;;;;;5051247;28;20374;-67
2022/11/24 04:25:32;;;;;;;12.30;2.80;;;7.50;99.90;;;;;;5050407;28;20052;-67
2022/11/24 04:27:57;;;;;;;12.32;3.17;;;7.50;99.90;;;;;;5051157;28;20490;-67
2022/11/24 04:30:25;;;;;;;16.27;3.47;;;7.60;99.90;;;;;;5050901;28;20048;-67
2022/11/24 04:32:51;;;;;;;7.97;2.22;;;7.50;99.90;;;;;;5051179;28;20041;-68
2022/11/24 04:35:17;;;;;;;9.23;2.58;;;7.50;99.90;;;;;;5048808;28;20124;-67
2022/11/24 04:37:42;;;;;;;16.08;3.50;;;7.50;99.90;;;;;;5050962;28;20448;-67
2022/11/24 04:40:09;;;;;;;10.85;2.92;;;7.50;99.90;;;;;;5051149;28;20048;-67
2022/11/24 04:42:35;;;;;;;16.48;3.67;;;7.50;99.90;;;;;;5051142;28;20052;-67
2022/11/24 04:45:01;;;;;;;11.77;2.97;;;7.50;99.90;;;;;;5049594;28;20040;-67
2022/11/24 04:47:26;;;;;;;12.20;2.55;;;7.50;99.90;;;;;;5051060;28;20077;-67
2022/11/24 04:49:52;;;;;;;7.82;2.28;;;7.50;99.90;;;;;;5050578;28;20080;-67
2022/11/24 04:52:20;;;;;;;13.25;3.03;;;7.50;99.90;;;;;;5050907;28;20434;-67
2022/11/24 04:54:46;;;;;;;11.60;2.50;;;7.50;99.90;;;;;;5049758;28;20490;-68
2022/11/24 04:57:16;;;;;;;16.58;2.50;;;7.50;99.90;;;;;;5050833;28;20055;-68
2022/11/24 04:59:42;;;;;;;9.75;2.65;;;7.60;99.90;;;;;;5050621;28;20051;-67
2022/11/24 05:02:08;;;;;;;12.35;2.72;;;7.60;99.90;;;;;;5050796;28;20124;-67
2022/11/24 05:04:34;;;;;;;17.67;2.97;;;7.60;99.90;;;;;;5031774;28;20041;-67
2022/11/24 05:06:59;;;;;;;13.13;2.88;;;7.50;99.90;;;;;;5049276;28;20041;-67
2022/11/24 05:09:25;;;;;;;12.15;2.92;;;7.60;99.90;;;;;;5051153;28;20049;-67
2022/11/24 05:11:51;;;;;;;16.10;2.95;;;7.60;99.90;;;;;;5050463;28;20045;-68
2022/11/24 05:14:16;;;;;;;13.02;3.10;;;7.60;99.90;;;;;;5049629;28;20045;-67
2022/11/24 05:16:42;;;;;;;10.02;2.40;;;7.60;99.90;;;;;;5049104;28;20045;-67
2022/11/24 05:19:07;;;;;;;11.57;3.10;;;7.60;99.90;;;;;;5050487;28;20041;-67
2022/11/24 05:21:33;;;;;;;7.35;2.58;;;7.60;99.90;;;;;;5050457;28;20064;-67
2022/11/24 05:23:58;;;;;;;8.68;2.28;;;7.60;99.90;;;;;;5049585;28;20345;-66
2022/11/24 05:26:25;;;;;;;17.15;3.42;;;7.60;99.90;;;;;;5050613;28;20045;-67
2022/11/24 05:28:51;;;;;;;16.55;3.00;;;7.50;99.90;;;;;;5050714;28;20097;-68
2022/11/24 05:31:16;;;;;;;11.13;2.78;;;7.50;99.90;;;;;;5050527;28;20349;-67
2022/11/24 05:33:42;;;;;;;6.60;2.20;;;7.50;99.90;;;;;;5050007;28;20071;-67
2022/11/24 05:36:51;;;;;;;14.48;2.35;;;7.50;99.90;;;;;;5064973;28;20037;-67
2022/11/24 05:38:54;;;;;;;9.88;2.83;;;7.50;99.90;;;;;;5070258;28;20420;-67
2022/11/24 05:41:19;;;;;;;9.35;2.10;;;7.40;99.90;;;;;;5068993;28;20040;-67
2022/11/24 05:43:45;;;;;;;16.27;2.95;;;7.40;99.90;;;;;;5069670;28;20125;-67
2022/11/24 05:46:10;;;;;;;7.57;2.78;;;7.40;99.90;;;;;;5070531;28;20616;-67
2022/11/24 05:48:36;;;;;;;13.20;2.15;;;7.40;99.90;;;;;;5069093;28;20593;-67
2022/11/24 05:51:01;;;;;;;16.45;2.65;;;7.40;99.90;;;;;;5070457;28;20393;-67
2022/11/24 05:53:27;;;;;;;16.27;3.72;;;7.30;99.90;;;;;;5070162;28;20492;-66
2022/11/24 05:55:52;;;;;;;9.30;2.53;;;7.30;99.90;;;;;;5069793;28;20071;-66
2022/11/24 05:58:18;;;;;;;8.20;2.30;;;7.30;99.90;;;;;;5072750;28;20086;-67
2022/11/24 06:00:44;;;;;;;20.20;2.88;;;7.20;99.90;;;;;;5073985;28;20071;-67
2022/11/24 06:03:10;;;;;;;17.08;2.88;;;7.20;99.90;;;;;;5073733;28;20037;-67
2022/11/24 06:05:36;;;;;;;14.68;2.88;;;7.20;99.90;;;;;;5072762;28;20497;-67
2022/11/24 06:08:02;;;;;;;9.00;2.28;;;7.10;99.90;;;;;;5073733;28;20043;-67
2022/11/24 06:10:28;;;;;;;9.65;2.83;;;7.10;99.90;;;;;;5072094;28;20036;-66
2022/11/24 06:12:54;;;;;;;18.83;2.53;;;7.10;99.90;;;;;;5073849;28;20046;-67
2022/11/24 06:15:20;;;;;;;10.05;2.30;;;7.10;99.90;;;;;;5072815;28;20048;-67
2022/11/24 06:17:53;;;;;;;12.35;2.95;;;7.10;99.90;;;;;;5073709;28;20523;-66
2022/11/24 06:20:19;;;;;;;15.75;3.53;;;7.10;99.90;;;;;;5073461;28;20066;-67
2022/11/24 06:22:44;;;;;;;9.32;2.95;;;7.10;99.90;;;;;;5073404;28;20513;-67
2022/11/24 06:25:10;;;;;;;8.10;2.38;;;7.00;99.90;;;;;;5071026;28;20069;-67
2022/11/24 06:27:35;;;;;;;9.13;2.63;;;7.00;99.90;;;;;;5073412;28;20093;-67
2022/11/24 06:30:01;;;;;;;16.15;4.25;;;7.00;99.90;;;;;;5071820;28;20042;-67
2022/11/24 06:32:26;;;;;;;12.55;2.47;;;7.00;99.90;;;;;;5071871;28;20037;-67
2022/11/24 06:34:52;;;;;;;9.25;2.75;;;7.10;99.90;;;;;;5071833;28;20048;-68
2022/11/24 06:37:17;;;;;;;10.00;2.67;;;7.10;99.90;;;;;;5073304;28;20109;-67
2022/11/24 06:39:43;;;;;;;5.90;2.40;;;7.10;99.90;;;;;;5072798;28;20043;-67
2022/11/24 06:42:08;;;;;;;14.98;3.63;;;7.10;99.90;;;;;;5073250;28;20036;-67
2022/11/24 06:44:34;;;;;;;12.80;2.90;;;7.10;99.90;;;;;;5072046;28;20497;-68
2022/11/24 06:47:00;;;;;;;10.68;3.35;;;7.10;99.90;;;;;;5073299;28;20036;-67
2022/11/24 06:49:26;;;;;;;12.18;2.85;;;7.10;99.90;;;;;;5072730;28;20497;-67
2022/11/24 06:51:53;;;;;;;15.60;2.78;;;7.10;99.90;;;;;;5072861;28;20044;-67
2022/11/24 06:54:20;;;;;;;9.82;2.50;;;7.20;99.90;;;;;;5072106;28;20110;-68
2022/11/24 06:56:46;;;;;;;9.43;3.25;;;7.20;99.90;;;;;;5072829;28;20131;-68
2022/11/24 06:59:16;;;;;;;17.27;3.20;;;7.20;99.90;;;;;;5071371;28;20119;-67
2022/11/24 07:01:42;;;;;;;14.25;3.38;;;7.20;99.90;;;;;;5072748;28;20412;-67
2022/11/24 07:04:09;;;;;;;8.07;2.88;;;7.20;99.90;;;;;;5071677;28;20045;-67
2022/11/24 07:06:34;;;;;;;12.48;3.15;;;7.20;99.90;;;;;;5072672;28;20040;-67
2022/11/24 07:09:00;;;;;;;13.80;3.00;;;7.30;99.90;;;;;;5068077;28;20048;-68
2022/11/24 07:11:25;;;;;;;16.20;3.40;;;7.30;99.90;;;;;;5063932;28;20036;-67
2022/11/24 07:13:51;;;;;;;22.95;3.47;;;7.30;99.90;;;;;;5071661;28;20386;-68
2022/11/24 07:16:22;;;;;;;9.55;3.60;;;7.40;99.90;;;;;;5069612;28;20449;-68
2022/11/24 07:18:52;;;;;;;12.88;2.42;;;7.40;99.90;;;;;;5069213;28;20496;-67
2022/11/24 07:21:25;;;;;;;12.63;3.45;;;7.40;99.90;;;;;;5070278;28;20400;-67
2022/11/24 07:23:53;;;;;;;19.75;3.70;;;7.40;99.90;;;;;;5068877;28;20101;-67
2022/11/24 07:26:19;;;;;;;11.02;2.95;;;7.40;99.90;;;;;;5072312;28;20047;-67
2022/11/24 07:28:45;;;;;;;12.98;3.38;;;7.40;99.90;;;;;;5071196;28;20400;-67
2022/11/24 07:31:13;;;;;;;9.30;3.30;;;7.40;99.90;;;;;;5072166;28;20040;-68
2022/11/24 07:33:39;;;;;;;14.77;3.28;;;7.40;99.90;;;;;;5072182;28;20040;-67
2022/11/24 07:36:06;;;;;;;12.77;3.47;;;7.50;99.90;;;;;;5071370;28;20558;-67
2022/11/24 07:38:33;;;;;;;14.90;3.20;;;7.50;99.90;;;;;;5072173;28;20036;-67
2022/11/24 07:41:06;;;;;;;15.88;3.50;;;7.50;99.90;;;;;;5072223;28;20041;-67
2022/11/24 07:43:33;;;;;;;10.65;3.20;;;7.50;99.90;;;;;;5071808;28;20045;-67
2022/11/24 07:45:59;;;;;;;12.88;3.10;;;7.50;99.90;;;;;;5071178;28;20076;-67
2022/11/24 07:48:24;;;;;;;15.93;3.55;;;7.50;99.90;;;;;;5071836;28;20114;-68
2022/11/24 07:50:50;;;;;;;18.45;4.07;;;7.50;99.90;;;;;;5071725;28;20527;-67
2022/11/24 07:53:16;;;;;;;11.77;3.55;;;7.60;99.90;;;;;;5071554;28;20166;-68
2022/11/24 07:55:42;;;;;;;13.60;3.13;;;7.60;99.90;;;;;;5071004;28;20422;-67
2022/11/24 07:58:07;;;;;;;19.75;3.85;;;7.60;99.90;;;;;;5071633;28;20049;-67
2022/11/24 08:00:33;;;;;;;16.08;2.80;;;7.60;99.90;;;;;;5071140;28;20116;-67
2022/11/24 08:02:58;;;;;;;18.48;4.20;;;7.60;99.90;;;;;;5071124;28;20439;-67
2022/11/24 08:05:25;;;;;;;15.07;3.45;;;7.60;99.90;;;;;;5070379;28;20124;-67
2022/11/24 08:07:50;;;;;;;13.32;3.15;;;7.60;99.90;;;;;;5071131;28;20131;-68
2022/11/24 08:10:16;;;;;;;16.20;3.63;;;7.70;99.90;;;;;;5071618;28;20115;-67
2022/11/24 08:12:42;;;;;;;9.65;3.30;;;7.60;99.90;;;;;;5053054;28;20573;-67
2022/11/24 08:15:08;;;;;;;19.30;4.00;;;7.60;99.90;;;;;;5070522;28;20115;-68
2022/11/24 08:17:34;;;;;;;13.77;3.65;;;7.60;99.90;;;;;;5053096;28;20110;-67
2022/11/24 08:19:59;;;;;;;18.45;3.67;;;7.70;99.90;;;;;;5070738;28;20816;-68
2022/11/24 08:22:25;;;;;;;13.25;4.07;;;7.70;99.90;;;;;;5071057;28;20040;-67
2022/11/24 08:24:51;;;;;;;13.82;3.65;;;7.80;99.90;;;;;;5070358;28;20039;-67
2022/11/24 08:27:18;;;;;;;17.85;3.70;;;7.70;99.90;;;;;;5071401;28;20033;-67
2022/11/24 08:29:44;;;;;;;13.40;4.45;;;7.70;99.90;;;;;;5069675;28;20043;-67
2022/11/24 08:32:11;;;;;;;11.02;3.00;;;7.70;99.90;;;;;;5071119;28;20123;-67
2022/11/24 08:34:37;;;;;;;11.57;4.15;;;7.70;99.90;;;;;;5070183;28;20098;-67
2022/11/24 08:37:04;;;;;;;17.00;3.63;;;7.70;99.90;;;;;;5071284;28;20043;-67
2022/11/24 08:39:30;;;;;;;8.07;3.50;;;7.70;99.90;;;;;;5071187;28;20048;-67
2022/11/24 08:41:56;;;;;;;14.55;3.40;;;7.70;99.90;;;;;;5071134;28;20044;-67
2022/11/24 08:44:21;;;;;;;11.65;2.80;;;7.70;99.90;;;;;;5070193;28;20040;-68
2022/11/24 08:46:48;;;;;;;12.43;3.42;;;7.80;99.90;;;;;;5071072;28;20044;-67
2022/11/24 08:49:14;;;;;;;6.20;2.83;;;7.80;99.90;;;;;;5070977;28;20040;-67
2022/11/24 08:51:40;;;;;;;9.57;2.75;;;7.80;99.90;;;;;;5071138;28;20101;-67
2022/11/24 08:54:08;;;;;;;8.18;2.47;;;7.80;99.90;;;;;;5069982;28;20485;-68
2022/11/24 08:56:33;;;;;;;5.93;2.63;;;7.90;99.90;;;;;;5070773;28;20037;-68
2022/11/24 08:58:59;;;;;;;10.82;2.83;;;7.90;99.90;;;;;;5070894;28;20063;-67
2022/11/24 09:01:26;;;;;;;9.00;3.05;;;7.90;99.90;;;;;;5070793;28;20045;-67
2022/11/24 09:03:52;;;;;;;5.95;3.05;;;7.90;99.90;;;;;;5069751;28;20071;-68
2022/11/24 09:06:21;;;;;;;8.93;2.65;;;8.00;99.90;;;;;;5070767;28;20037;-67
2022/11/24 09:08:47;;;;;;;9.85;3.20;;;8.00;99.90;;;;;;5070865;28;20033;-67
2022/11/24 09:11:14;;;;;;;13.07;3.17;;;8.10;99.90;;;;;;5070590;28;20063;-67
2022/11/24 09:13:40;;;;;;;10.43;3.35;;;8.10;99.90;;;;;;5068963;28;20094;-68
2022/11/24 09:16:12;;;;;;;7.47;2.70;;;8.10;99.90;;;;;;5061529;28;20048;-70
2022/11/24 09:18:39;;;;;;;;;;;8.00;99.90;;;;;;5069484;28;20116;-68
2022/11/24 09:21:12;;;;;;;11.90;2.88;;;8.10;99.90;;;;;;5069757;28;20016;-67
2022/11/24 09:23:39;;;;;;;10.35;2.97;;;8.10;99.90;;;;;;5070240;28;20036;-68
2022/11/24 09:26:24;;;;;;;9.43;2.78;;;8.20;99.90;;;;;;5051322;28;20039;-67
2022/11/24 09:28:53;;;;;;;6.90;2.65;;;8.20;99.90;;;;;;5070239;28;20064;-68
2022/11/24 09:31:20;;;;;;;7.03;2.35;;;8.20;99.90;;;;;;5070197;28;20459;-71
2022/11/24 09:33:46;;;;;;;10.27;3.03;;;8.20;99.90;;;;;;5073011;28;20040;-68
2022/11/24 09:36:12;;;;;;;3.78;2.22;;;8.20;99.90;;;;;;5071933;28;20621;-67
2022/11/24 09:38:38;;;;;;;5.15;1.83;;;8.20;99.90;;;;;;5072151;28;20069;-70
2022/11/24 09:41:19;;;;;;;7.28;2.35;;;8.40;99.90;;;;;;5073444;28;20062;-70
2022/11/24 09:43:50;;;;;;;7.20;2.70;;;8.40;99.90;;;;;;5072956;28;20040;-71
2022/11/24 09:46:21;;;;;;;5.50;2.90;;;8.30;99.90;;;;;;5073770;28;20072;-70
2022/11/24 09:48:51;;;;;;;5.10;2.30;;;8.40;99.90;;;;;;5073382;28;20086;-71
2022/11/24 09:51:23;;;;;;;5.88;2.35;;;8.40;99.90;;;;;;5073735;28;20501;-67
2022/11/24 09:54:02;;;;;;;7.00;2.88;;;8.40;99.90;;;;;;5071739;28;20040;-67
2022/11/24 09:56:33;;;;;;;6.57;2.58;;;8.40;99.90;;;;;;5073666;28;20120;-67
2022/11/24 09:59:18;;;;;;;6.85;2.58;;;8.40;99.90;;;;;;5073663;28;20121;-67
2022/11/24 10:01:46;;;;;;;6.70;2.50;;;8.50;99.90;;;;;;5073763;28;20044;-69
2022/11/24 10:04:14;;;;;;;4.45;3.08;;;8.50;99.90;;;;;;5072653;28;20076;-69
2022/11/24 10:07:03;;;;;;;5.45;3.10;;;8.50;99.90;;;;;;5073465;28;20044;-69
2022/11/24 10:09:44;;;;;;;6.78;2.72;;;8.60;99.90;;;;;;5059621;28;20072;-69
2022/11/24 10:12:39;;;;;;;8.43;3.45;;;8.60;99.90;;;;;;5063018;28;20094;-69
2022/11/24 10:15:33;;;;;;;7.38;3.13;;;8.70;99.90;;;;;;5055212;28;20045;-70
2022/11/24 10:18:30;;;;;;;4.10;2.75;;;8.70;99.90;;;;;;5052107;28;20071;-68
2022/11/24 10:21:41;;;;;;;7.32;3.28;;;8.70;99.90;;;;;;5053587;28;20116;-68
2022/11/24 10:24:54;;;;;;;10.02;4.03;;;8.60;99.90;;;;;;5052575;28;20045;-67
2022/11/24 10:27:27;;;;;;;7.65;3.05;;;8.70;99.90;;;;;;5053352;28;20139;-69
2022/11/24 10:29:53;;;;;;;6.50;3.50;;;8.70;99.90;;;;;;5053192;28;20159;-68
2022/11/24 10:32:26;;;;;;;4.68;3.50;;;8.70;99.90;;;;;;5051902;28;20108;-70
2022/11/24 10:34:54;;;;;;;6.47;3.58;;;8.70;99.90;;;;;;5052215;28;20106;-68
2022/11/24 10:37:31;;;;;;;6.85;4.10;;;8.70;99.90;;;;;;5052689;28;20052;-67
2022/11/24 10:40:06;;;;;;;7.32;4.30;;;8.80;99.90;;;;;;5053198;28;20044;-68
2022/11/24 10:42:35;;;;;;;9.00;4.13;;;8.80;99.90;;;;;;5052673;28;20052;-68
2022/11/24 10:45:09;;;;;;;11.05;4.18;;;8.90;99.90;;;;;;5034013;28;20048;-67
2022/11/24 10:47:35;;;;;;;8.27;3.72;;;9.00;99.90;;;;;;5052349;28;20045;-67
2022/11/24 10:50:20;;;;;;;9.77;4.43;;;8.90;99.90;;;;;;5064709;28;20044;-67
2022/11/24 10:53:40;;;;;;;7.60;4.50;;;9.00;99.90;;;;;;5063161;28;20040;-67
2022/11/24 10:56:06;;;;;;;7.00;4.13;;;9.00;99.90;;;;;;5031660;28;20052;-67
2022/11/24 10:58:34;;;;;;;6.22;4.00;;;9.00;99.90;;;;;;5061177;28;20047;-67
2022/11/24 11:01:22;;;;;;;8.45;4.57;;;9.10;99.90;;;;;;5061169;28;20111;-67
2022/11/24 11:03:52;;;;;;;9.68;4.50;;;9.10;99.90;;;;;;5054375;28;20048;-67
2022/11/24 11:06:29;;;;;;;8.02;4.65;;;9.10;99.90;;;;;;5061627;28;20107;-66
2022/11/24 11:09:06;;;;;;;9.52;4.18;;;9.10;99.90;;;;;;5060773;28;20037;-67
2022/11/24 11:11:37;;;;;;;10.07;4.68;;;9.10;99.90;;;;;;5059424;28;20040;-67
2022/11/24 11:14:08;;;;;;;12.93;4.95;;;9.20;99.90;;;;;;5059782;28;20049;-67
2022/11/24 11:16:34;;;;;;;9.32;4.75;;;9.20;99.90;;;;;;5062612;28;20041;-67
2022/11/24 11:19:02;;;;;;;12.43;4.78;;;9.20;99.90;;;;;;5060494;28;20044;-67
2022/11/24 11:21:33;;;;;;;8.85;4.95;;;9.30;99.90;;;;;;5060896;28;20041;-67
2022/11/24 11:24:01;;;;;;;8.48;4.72;;;9.30;99.90;;;;;;5060413;28;20044;-67
2022/11/24 11:26:35;;;;;;;11.25;5.00;;;9.30;99.90;;;;;;5057146;28;20171;-67
2022/11/24 11:29:07;;;;;;;9.57;4.93;;;9.30;99.90;;;;;;5050848;28;20505;-67
2022/11/24 11:31:34;;;;;;;11.38;4.88;;;9.30;99.90;;;;;;5051935;28;20124;-67
2022/11/24 11:34:11;;;;;;;11.57;5.72;;;9.40;99.90;;;;;;5051189;28;20048;-67
2022/11/24 11:36:44;;;;;;;15.38;5.05;;;9.40;99.90;;;;;;5050325;28;20094;-67
2022/11/24 11:39:33;;;;;;;8.38;4.65;;;9.40;99.90;;;;;;5052084;28;20049;-67
2022/11/24 11:42:13;;;;;;;10.93;5.25;;;9.50;99.90;;;;;;5051428;28;20044;-67
2022/11/24 11:45:05;;;;;;;9.95;5.75;;;9.50;99.90;;;;;;5051077;28;20045;-66
2022/11/24 11:47:37;;;;;;;8.40;4.70;;;9.60;99.90;;;;;;5051510;28;20051;-66
2022/11/24 11:50:10;;;;;;;;;;;9.50;99.90;;;;;;5051541;28;20041;-66
2022/11/24 11:53:00;;;;;;;12.05;4.55;;;9.50;99.90;;;;;;5051662;28;19920;-67
2022/11/24 11:55:28;;;;;;;10.60;4.43;;;9.50;99.90;;;;;;5049587;28;20091;-67
2022/11/24 11:58:05;;;;;;;11.48;5.18;;;9.60;99.90;;;;;;5051383;28;20466;-67
2022/11/24 12:00:33;;;;;;;11.48;5.43;;;9.70;99.90;;;;;;5051564;28;20045;-66
2022/11/24 12:03:22;;;;;;;11.13;5.07;;;9.70;99.90;;;;;;5050002;28;20476;-66
2022/11/24 12:06:07;;;;;;;15.10;5.32;;;9.70;99.90;;;;;;5050255;28;20105;-66
2022/11/24 12:08:52;;;;;;;10.63;5.30;;;9.70;99.90;;;;;;5049935;28;20076;-66
2022/11/24 12:11:25;;;;;;;14.02;5.05;;;9.70;99.90;;;;;;5049793;28;20033;-66
2022/11/24 12:14:03;;;;;;;10.38;5.88;;;9.70;99.90;;;;;;5050937;28;20449;-67
2022/11/24 12:16:49;;;;;;;16.67;6.43;;;9.80;99.90;;;;;;5051213;28;20037;-67
2022/11/24 12:19:34;;;;;;;12.70;5.03;;;9.80;99.90;;;;;;5051824;28;20389;-67
2022/11/24 12:22:08;;;;;;;9.73;4.95;;;9.80;99.90;;;;;;5062130;28;20067;-67
2022/11/24 12:24:42;;;;;;;9.82;4.80;;;9.80;99.90;;;;;;5068513;28;20052;-67
2022/11/24 12:27:30;;;;;;;12.55;4.95;;;9.80;99.90;;;;;;5034333;28;20051;-69
2022/11/24 12:30:11;;;;;;;14.00;5.07;;;9.80;99.90;;;;;;5071107;28;20051;-67
2022/11/24 12:33:04;;;;;;;10.15;4.72;;;9.80;99.90;;;;;;5070670;28;20116;-66
2022/11/24 12:35:44;;;;;;;10.38;4.70;;;9.90;99.90;;;;;;5067550;28;20054;-66
2022/11/24 12:38:48;;;;;;;15.30;5.03;;;9.90;99.90;;;;;;5070934;28;20040;-66
2022/11/24 12:41:36;;;;;;;12.48;4.97;;;9.90;99.90;;;;;;5070970;28;20093;-66
2022/11/24 12:44:02;;;;;;;9.50;5.28;;;9.90;99.90;;;;;;5070264;28;20441;-65
2022/11/24 12:46:43;;;;;;;9.75;4.90;;;9.90;99.90;;;;;;5070689;28;20351;-66
2022/11/24 12:49:20;;;;;;;12.40;5.90;;;9.90;99.90;;;;;;5052649;28;20036;-66
2022/11/24 12:51:52;;;;;;;11.70;5.38;;;10.10;99.90;;;;;;5070845;28;20540;-66
2022/11/24 12:54:20;;;;;;;13.00;4.82;;;10.20;99.90;;;;;;5068674;28;20059;-66
2022/11/24 12:57:06;;;;;;;10.05;4.55;;;10.30;99.90;;;;;;5060463;28;20390;-67
2022/11/24 12:59:55;;;;;;;8.00;3.92;;;10.40;99.90;;;;;;5068867;28;20058;-67
2022/11/24 13:02:32;;;;;;;12.10;4.50;;;10.50;99.90;;;;;;5070932;28;20043;-67
2022/11/24 13:05:26;;;;;;;10.77;4.53;;;10.50;99.90;;;;;;5069614;28;20036;-67